JST113 YSSY-NCRG
Flight info
| Callsign | JST113 |
|---|---|
| Flight time | 6h 4m |
| Altitude | 33000 |
| Route | TESAT G595 NIMOD/N0451F350 G595 PAVSI DCT BIXIT ANIVA1A |
| Aircraft | A21N/M-SDE2E3FGHIJ1RWXY/LB1 |
Departure
| Time | 2026-05-06 06:11 |
|---|---|
| Airport | Sydney Kingsford Smith International Airport (YSSY) |
Arrival
| Time | 2026-05-06 12:15 |
|---|---|
| Airport | Rarotonga International Airport (NCRG) |
| Time | Latitude | Longitude | Altitude | Speed | Heading |
|---|---|---|---|---|---|
| 2026-05-06 04:59 | -33.93956 | 151.16410 | 36 ft | 0 kts | 123° |
| 2026-05-06 05:58 | -33.93956 | 151.16409 | 35 ft | 1 kts | 123° |
| 2026-05-06 05:58 | -33.93943 | 151.16385 | 35 ft | 4 kts | 116° |
| 2026-05-06 05:58 | -33.93935 | 151.16361 | 35 ft | 5 kts | 110° |
| 2026-05-06 05:58 | -33.93921 | 151.16339 | 35 ft | 6 kts | 159° |
| 2026-05-06 05:59 | -33.93900 | 151.16333 | 35 ft | 8 kts | 173° |
| 2026-05-06 05:59 | -33.93915 | 151.16329 | 35 ft | 4 kts | 203° |
| 2026-05-06 05:59 | -33.93938 | 151.16313 | 35 ft | 4 kts | 209° |
| 2026-05-06 05:59 | -33.93963 | 151.16301 | 35 ft | 4 kts | 194° |
| 2026-05-06 06:00 | -33.93970 | 151.16300 | 35 ft | 2 kts | 192° |
| 2026-05-06 06:02 | -33.93975 | 151.16298 | 35 ft | 2 kts | 192° |
| 2026-05-06 06:02 | -33.93995 | 151.16293 | 35 ft | 4 kts | 192° |
| 2026-05-06 06:03 | -33.94062 | 151.16277 | 35 ft | 13 kts | 190° |
| 2026-05-06 06:03 | -33.94154 | 151.16300 | 35 ft | 14 kts | 143° |
| 2026-05-06 06:03 | -33.94163 | 151.16408 | 35 ft | 14 kts | 73° |
| 2026-05-06 06:03 | -33.94135 | 151.16526 | 35 ft | 15 kts | 74° |
| 2026-05-06 06:04 | -33.94107 | 151.16648 | 35 ft | 15 kts | 75° |
| 2026-05-06 06:04 | -33.94078 | 151.16773 | 35 ft | 16 kts | 75° |
| 2026-05-06 06:04 | -33.94048 | 151.16901 | 35 ft | 16 kts | 73° |
| 2026-05-06 06:04 | -33.94017 | 151.17031 | 35 ft | 15 kts | 74° |
| 2026-05-06 06:05 | -33.93997 | 151.17114 | 35 ft | 7 kts | 73° |
| 2026-05-06 06:05 | -33.93991 | 151.17139 | 35 ft | 0 kts | 74° |
| 2026-05-06 06:06 | -33.93984 | 151.17168 | 35 ft | 8 kts | 74° |
| 2026-05-06 06:06 | -33.93950 | 151.17215 | 34 ft | 8 kts | 15° |
| 2026-05-06 06:06 | -33.93891 | 151.17205 | 34 ft | 9 kts | 347° |
| 2026-05-06 06:07 | -33.93819 | 151.17185 | 34 ft | 12 kts | 347° |
| 2026-05-06 06:07 | -33.93732 | 151.17162 | 34 ft | 14 kts | 347° |
| 2026-05-06 06:07 | -33.93631 | 151.17136 | 34 ft | 15 kts | 348° |
| 2026-05-06 06:07 | -33.93525 | 151.17109 | 35 ft | 16 kts | 348° |
| 2026-05-06 06:08 | -33.93417 | 151.17082 | 35 ft | 16 kts | 348° |
| 2026-05-06 06:08 | -33.93314 | 151.17035 | 35 ft | 14 kts | 320° |
| 2026-05-06 06:08 | -33.93253 | 151.16965 | 35 ft | 12 kts | 335° |
| 2026-05-06 06:08 | -33.93168 | 151.16941 | 35 ft | 13 kts | 347° |
| 2026-05-06 06:09 | -33.93078 | 151.16917 | 35 ft | 13 kts | 347° |
| 2026-05-06 06:09 | -33.93001 | 151.16923 | 35 ft | 10 kts | 39° |
| 2026-05-06 06:09 | -33.92974 | 151.17005 | 36 ft | 11 kts | 79° |
| 2026-05-06 06:09 | -33.92958 | 151.17100 | 36 ft | 12 kts | 85° |
| 2026-05-06 06:10 | -33.93000 | 151.17175 | 36 ft | 12 kts | 164° |
| 2026-05-06 06:10 | -33.93106 | 151.17202 | 36 ft | 33 kts | 168° |
| 2026-05-06 06:10 | -33.93581 | 151.17325 | 32 ft | 104 kts | 167° |
| 2026-05-06 06:10 | -33.94481 | 151.17559 | 35 ft | 159 kts | 167° |
| 2026-05-06 06:11 | -33.95683 | 151.17872 | 240 ft | 184 kts | 167° |
| 2026-05-06 06:11 | -33.96952 | 151.18189 | 834 ft | 190 kts | 170° |
| 2026-05-06 06:11 | -33.98311 | 151.18164 | 1298 ft | 205 kts | 187° |
| 2026-05-06 06:11 | -33.99773 | 151.17925 | 1736 ft | 222 kts | 186° |
| 2026-05-06 06:12 | -34.01389 | 151.17688 | 2027 ft | 246 kts | 186° |
| 2026-05-06 06:12 | -34.03139 | 151.17649 | 2571 ft | 257 kts | 171° |
| 2026-05-06 06:12 | -34.04892 | 151.18144 | 3293 ft | 261 kts | 164° |
| 2026-05-06 06:12 | -34.06647 | 151.18755 | 4033 ft | 264 kts | 163° |
| 2026-05-06 06:13 | -34.08424 | 151.19369 | 4768 ft | 267 kts | 164° |
| 2026-05-06 06:13 | -34.10223 | 151.19981 | 5486 ft | 270 kts | 164° |
| 2026-05-06 06:13 | -34.12011 | 151.20747 | 6087 ft | 276 kts | 149° |
| 2026-05-06 06:13 | -34.13436 | 151.22277 | 6776 ft | 277 kts | 124° |
| 2026-05-06 06:14 | -34.14215 | 151.24398 | 7419 ft | 280 kts | 100° |
| 2026-05-06 06:14 | -34.14193 | 151.26740 | 8073 ft | 283 kts | 76° |
| 2026-05-06 06:14 | -34.13583 | 151.29003 | 8751 ft | 285 kts | 69° |
| 2026-05-06 06:14 | -34.12875 | 151.31255 | 9409 ft | 289 kts | 69° |
| 2026-05-06 06:15 | -34.12161 | 151.33549 | 10009 ft | 295 kts | 68° |
| 2026-05-06 06:15 | -34.11432 | 151.35922 | 10416 ft | 309 kts | 69° |
| 2026-05-06 06:15 | -34.10684 | 151.38437 | 10708 ft | 327 kts | 69° |
| 2026-05-06 06:15 | -34.09900 | 151.41093 | 10973 ft | 345 kts | 70° |
| 2026-05-06 06:16 | -34.09091 | 151.43873 | 11374 ft | 356 kts | 70° |
| 2026-05-06 06:16 | -34.08268 | 151.46715 | 11999 ft | 360 kts | 70° |
| 2026-05-06 06:16 | -34.07442 | 151.49580 | 12639 ft | 363 kts | 70° |
| 2026-05-06 06:16 | -34.06609 | 151.52473 | 13259 ft | 367 kts | 70° |
| 2026-05-06 06:17 | -34.05774 | 151.55398 | 13852 ft | 371 kts | 70° |
| 2026-05-06 06:17 | -34.04935 | 151.58356 | 14430 ft | 374 kts | 70° |
| 2026-05-06 06:17 | -34.04083 | 151.61340 | 15005 ft | 378 kts | 70° |
| 2026-05-06 06:17 | -34.03220 | 151.64291 | 15548 ft | 381 kts | 69° |
| 2026-05-06 06:18 | -34.02339 | 151.67322 | 16098 ft | 385 kts | 69° |
| 2026-05-06 06:18 | -34.01451 | 151.70381 | 16626 ft | 388 kts | 70° |
| 2026-05-06 06:18 | -34.00568 | 151.73471 | 17134 ft | 392 kts | 70° |
| 2026-05-06 06:18 | -33.99677 | 151.76584 | 17630 ft | 395 kts | 70° |
| 2026-05-06 06:19 | -33.98773 | 151.79722 | 18115 ft | 398 kts | 69° |
| 2026-05-06 06:19 | -33.97854 | 151.82884 | 18595 ft | 401 kts | 69° |
| 2026-05-06 06:19 | -33.96927 | 151.86070 | 19074 ft | 404 kts | 69° |
| 2026-05-06 06:19 | -33.95996 | 151.89273 | 19534 ft | 407 kts | 69° |
| 2026-05-06 06:20 | -33.95054 | 151.92502 | 19977 ft | 410 kts | 69° |
| 2026-05-06 06:20 | -33.94086 | 151.95736 | 20420 ft | 412 kts | 69° |
| 2026-05-06 06:20 | -33.93103 | 151.98990 | 20862 ft | 415 kts | 69° |
| 2026-05-06 06:20 | -33.92126 | 152.02270 | 21299 ft | 417 kts | 69° |
| 2026-05-06 06:21 | -33.91191 | 152.05588 | 21694 ft | 421 kts | 73° |
| 2026-05-06 06:21 | -33.90702 | 152.09076 | 22098 ft | 425 kts | 86° |
| 2026-05-06 06:21 | -33.90675 | 152.12644 | 22511 ft | 428 kts | 90° |
| 2026-05-06 06:21 | -33.90732 | 152.16235 | 22902 ft | 430 kts | 90° |
| 2026-05-06 06:22 | -33.90783 | 152.19844 | 23304 ft | 433 kts | 90° |
| 2026-05-06 06:22 | -33.90811 | 152.23476 | 23678 ft | 435 kts | 90° |
| 2026-05-06 06:22 | -33.90829 | 152.27129 | 24048 ft | 438 kts | 90° |
| 2026-05-06 06:22 | -33.90846 | 152.30805 | 24411 ft | 440 kts | 90° |
| 2026-05-06 06:23 | -33.90868 | 152.34498 | 24761 ft | 443 kts | 90° |
| 2026-05-06 06:23 | -33.90889 | 152.38213 | 25108 ft | 445 kts | 90° |
| 2026-05-06 06:23 | -33.90917 | 152.41947 | 25443 ft | 447 kts | 90° |
| 2026-05-06 06:23 | -33.90942 | 152.45698 | 25771 ft | 449 kts | 89° |
| 2026-05-06 06:24 | -33.90953 | 152.49465 | 26079 ft | 451 kts | 89° |
| 2026-05-06 06:24 | -33.90963 | 152.53248 | 26376 ft | 453 kts | 89° |
| 2026-05-06 06:24 | -33.90977 | 152.57053 | 26663 ft | 456 kts | 89° |
| 2026-05-06 06:24 | -33.91005 | 152.60874 | 26945 ft | 458 kts | 90° |
| 2026-05-06 06:25 | -33.91027 | 152.64717 | 27228 ft | 460 kts | 90° |
| 2026-05-06 06:25 | -33.91048 | 152.68573 | 27500 ft | 462 kts | 89° |
| 2026-05-06 06:25 | -33.91052 | 152.76290 | 28004 ft | 466 kts | 89° |
| 2026-05-06 06:26 | -33.91070 | 152.80249 | 28253 ft | 468 kts | 90° |
| 2026-05-06 06:26 | -33.91099 | 152.84177 | 28495 ft | 470 kts | 89° |
| 2026-05-06 06:26 | -33.91120 | 152.88126 | 28726 ft | 472 kts | 89° |
| 2026-05-06 06:26 | -33.91134 | 152.92030 | 28967 ft | 474 kts | 89° |
| 2026-05-06 06:27 | -33.91137 | 152.96004 | 29238 ft | 475 kts | 89° |
| 2026-05-06 06:27 | -33.91131 | 152.99973 | 29543 ft | 475 kts | 89° |
| 2026-05-06 06:27 | -33.91131 | 153.03948 | 29830 ft | 474 kts | 89° |
| 2026-05-06 06:27 | -33.91118 | 153.07920 | 30118 ft | 475 kts | 89° |
| 2026-05-06 06:28 | -33.91118 | 153.10552 | 30298 ft | 475 kts | 89° |
| 2026-05-06 06:28 | -33.91118 | 153.14526 | 30560 ft | 475 kts | 89° |
| 2026-05-06 06:28 | -33.91097 | 153.19839 | 30896 ft | 475 kts | 88° |
| 2026-05-06 06:28 | -33.91089 | 153.22476 | 31051 ft | 476 kts | 88° |
| 2026-05-06 06:29 | -33.91079 | 153.26460 | 31111 ft | 476 kts | 89° |
| 2026-05-06 06:29 | -33.91071 | 153.34425 | 31091 ft | 476 kts | 88° |
| 2026-05-06 06:30 | -33.91047 | 153.42393 | 31084 ft | 476 kts | 88° |
| 2026-05-06 06:30 | -33.91021 | 153.50359 | 31086 ft | 476 kts | 88° |
| 2026-05-06 06:31 | -33.90994 | 153.58337 | 31077 ft | 476 kts | 88° |
| 2026-05-06 06:31 | -33.90971 | 153.66308 | 31076 ft | 476 kts | 88° |
| 2026-05-06 06:32 | -33.90927 | 153.74286 | 31077 ft | 476 kts | 88° |
| 2026-05-06 06:32 | -33.90879 | 153.82261 | 31083 ft | 476 kts | 88° |
| 2026-05-06 06:33 | -33.90832 | 153.90234 | 31086 ft | 476 kts | 88° |
| 2026-05-06 06:33 | -33.90772 | 153.98207 | 31084 ft | 476 kts | 88° |
| 2026-05-06 06:34 | -33.90714 | 154.06169 | 31080 ft | 476 kts | 88° |
| 2026-05-06 06:34 | -33.90657 | 154.14137 | 31084 ft | 476 kts | 88° |
| 2026-05-06 06:35 | -33.90588 | 154.22100 | 31077 ft | 476 kts | 88° |
| 2026-05-06 06:35 | -33.90509 | 154.30009 | 31078 ft | 476 kts | 88° |
| 2026-05-06 06:36 | -33.90426 | 154.37974 | 31079 ft | 476 kts | 88° |
| 2026-05-06 06:36 | -33.90347 | 154.45941 | 31087 ft | 476 kts | 88° |
| 2026-05-06 06:37 | -33.90012 | 154.53892 | 31082 ft | 475 kts | 83° |
| 2026-05-06 06:37 | -33.89376 | 154.61811 | 31084 ft | 475 kts | 83° |
| 2026-05-06 06:38 | -33.88713 | 154.69728 | 31079 ft | 475 kts | 82° |
| 2026-05-06 06:38 | -33.88041 | 154.77648 | 31085 ft | 476 kts | 82° |
| 2026-05-06 06:39 | -33.87358 | 154.85567 | 31082 ft | 476 kts | 82° |
| 2026-05-06 06:39 | -33.86687 | 154.93485 | 31084 ft | 476 kts | 82° |
| 2026-05-06 06:40 | -33.86030 | 155.01405 | 31075 ft | 476 kts | 82° |
| 2026-05-06 06:40 | -33.85353 | 155.09321 | 31077 ft | 475 kts | 82° |
| 2026-05-06 06:41 | -33.84658 | 155.17225 | 31080 ft | 476 kts | 82° |
| 2026-05-06 06:41 | -33.83959 | 155.25131 | 31081 ft | 475 kts | 82° |
| 2026-05-06 06:42 | -33.83254 | 155.33034 | 31083 ft | 475 kts | 82° |
| 2026-05-06 06:42 | -33.82532 | 155.40937 | 31079 ft | 475 kts | 82° |
| 2026-05-06 06:43 | -33.81789 | 155.48823 | 31084 ft | 475 kts | 82° |
| 2026-05-06 06:43 | -33.81064 | 155.56712 | 31080 ft | 475 kts | 82° |
| 2026-05-06 06:44 | -33.80343 | 155.64600 | 31076 ft | 474 kts | 82° |
| 2026-05-06 06:44 | -33.79621 | 155.72475 | 31068 ft | 474 kts | 82° |
| 2026-05-06 06:45 | -33.78892 | 155.80298 | 31070 ft | 474 kts | 82° |
| 2026-05-06 06:45 | -33.78161 | 155.88174 | 31075 ft | 474 kts | 82° |
| 2026-05-06 06:46 | -33.77419 | 155.96043 | 31073 ft | 474 kts | 82° |
| 2026-05-06 06:46 | -33.76674 | 156.03908 | 31073 ft | 474 kts | 82° |
| 2026-05-06 06:47 | -33.75924 | 156.11783 | 31072 ft | 474 kts | 82° |
| 2026-05-06 06:47 | -33.75175 | 156.19653 | 31080 ft | 474 kts | 82° |
| 2026-05-06 06:48 | -33.74418 | 156.27516 | 31076 ft | 474 kts | 81° |
| 2026-05-06 06:48 | -33.73648 | 156.35380 | 31067 ft | 474 kts | 81° |
| 2026-05-06 06:49 | -33.72879 | 156.43250 | 31078 ft | 474 kts | 81° |
| 2026-05-06 06:49 | -33.72098 | 156.51120 | 31077 ft | 475 kts | 81° |
| 2026-05-06 06:50 | -33.71319 | 156.58993 | 31064 ft | 475 kts | 81° |
| 2026-05-06 06:50 | -33.70531 | 156.66873 | 31079 ft | 475 kts | 81° |
| 2026-05-06 06:51 | -33.69737 | 156.74754 | 31072 ft | 476 kts | 81° |
| 2026-05-06 06:51 | -33.68951 | 156.82641 | 31066 ft | 476 kts | 81° |
| 2026-05-06 06:52 | -33.68140 | 156.90524 | 31072 ft | 476 kts | 81° |
| 2026-05-06 06:52 | -33.67328 | 156.98409 | 31072 ft | 476 kts | 81° |
| 2026-05-06 06:53 | -33.66514 | 157.06297 | 31069 ft | 476 kts | 81° |
| 2026-05-06 06:53 | -33.65698 | 157.14194 | 31079 ft | 476 kts | 81° |
| 2026-05-06 06:54 | -33.64874 | 157.22082 | 31073 ft | 476 kts | 81° |
| 2026-05-06 06:54 | -33.64050 | 157.29918 | 31074 ft | 476 kts | 81° |
| 2026-05-06 06:55 | -33.63213 | 157.37802 | 31062 ft | 476 kts | 81° |
| 2026-05-06 06:55 | -33.62374 | 157.45691 | 31061 ft | 476 kts | 81° |
| 2026-05-06 06:56 | -33.61530 | 157.53571 | 31066 ft | 476 kts | 81° |
| 2026-05-06 06:56 | -33.60685 | 157.61455 | 31068 ft | 476 kts | 81° |
| 2026-05-06 06:57 | -33.59828 | 157.69335 | 31066 ft | 476 kts | 80° |
| 2026-05-06 06:57 | -33.58971 | 157.77213 | 31059 ft | 477 kts | 80° |
| 2026-05-06 06:58 | -33.58103 | 157.85099 | 31078 ft | 477 kts | 80° |
| 2026-05-06 06:58 | -33.57236 | 157.92978 | 31069 ft | 477 kts | 80° |
| 2026-05-06 06:59 | -33.56361 | 158.00853 | 31075 ft | 477 kts | 80° |
| 2026-05-06 06:59 | -33.55488 | 158.08722 | 31057 ft | 476 kts | 80° |
| 2026-05-06 07:00 | -33.54600 | 158.16588 | 31059 ft | 476 kts | 80° |
| 2026-05-06 07:00 | -33.53716 | 158.24456 | 31066 ft | 476 kts | 80° |
| 2026-05-06 07:01 | -33.52837 | 158.32274 | 31064 ft | 477 kts | 80° |
| 2026-05-06 07:01 | -33.51944 | 158.40141 | 31061 ft | 476 kts | 80° |
| 2026-05-06 07:02 | -33.51041 | 158.48004 | 31065 ft | 476 kts | 80° |
| 2026-05-06 07:02 | -33.50131 | 158.55863 | 31059 ft | 476 kts | 80° |
| 2026-05-06 07:03 | -33.49220 | 158.63725 | 31073 ft | 476 kts | 80° |
| 2026-05-06 07:03 | -33.48309 | 158.71583 | 31063 ft | 476 kts | 80° |
| 2026-05-06 07:04 | -33.47384 | 158.79434 | 31058 ft | 476 kts | 80° |
| 2026-05-06 07:04 | -33.46439 | 158.87276 | 31056 ft | 476 kts | 80° |
| 2026-05-06 07:05 | -33.45503 | 158.95120 | 31057 ft | 476 kts | 80° |
| 2026-05-06 07:05 | -33.44575 | 159.02959 | 31053 ft | 476 kts | 80° |
| 2026-05-06 07:06 | -33.43629 | 159.10799 | 31062 ft | 475 kts | 80° |
| 2026-05-06 07:06 | -33.42681 | 159.18629 | 31061 ft | 475 kts | 80° |
| 2026-05-06 07:07 | -33.41733 | 159.26406 | 31068 ft | 475 kts | 80° |
| 2026-05-06 07:07 | -33.40776 | 159.34222 | 31062 ft | 475 kts | 80° |
| 2026-05-06 07:08 | -33.39812 | 159.42058 | 31063 ft | 475 kts | 80° |
| 2026-05-06 07:08 | -33.38843 | 159.49878 | 31059 ft | 475 kts | 80° |
| 2026-05-06 07:09 | -33.37873 | 159.57696 | 31062 ft | 475 kts | 79° |
| 2026-05-06 07:09 | -33.36899 | 159.65510 | 31060 ft | 475 kts | 79° |
| 2026-05-06 07:10 | -33.35920 | 159.73318 | 31061 ft | 475 kts | 79° |
| 2026-05-06 07:10 | -33.34936 | 159.81131 | 31073 ft | 475 kts | 79° |
| 2026-05-06 07:11 | -33.33968 | 159.88942 | 31062 ft | 474 kts | 80° |
| 2026-05-06 07:11 | -33.33017 | 159.96745 | 31063 ft | 474 kts | 80° |
| 2026-05-06 07:12 | -33.32057 | 160.04546 | 31060 ft | 474 kts | 80° |
| 2026-05-06 07:12 | -33.31093 | 160.12333 | 31071 ft | 473 kts | 80° |
| 2026-05-06 07:13 | -33.30122 | 160.20121 | 31053 ft | 473 kts | 80° |
| 2026-05-06 07:13 | -33.29148 | 160.27905 | 31059 ft | 473 kts | 80° |
| 2026-05-06 07:14 | -33.28172 | 160.35684 | 31075 ft | 474 kts | 79° |
| 2026-05-06 07:14 | -33.27186 | 160.43468 | 31055 ft | 473 kts | 79° |
| 2026-05-06 07:15 | -33.26197 | 160.51243 | 31073 ft | 473 kts | 79° |
| 2026-05-06 07:15 | -33.25210 | 160.58964 | 31059 ft | 473 kts | 79° |
| 2026-05-06 07:16 | -33.24210 | 160.66735 | 31069 ft | 473 kts | 79° |
| 2026-05-06 07:16 | -33.23210 | 160.74498 | 31069 ft | 473 kts | 79° |
| 2026-05-06 07:17 | -33.22201 | 160.82255 | 31073 ft | 473 kts | 79° |
| 2026-05-06 07:17 | -33.21188 | 160.90015 | 31073 ft | 473 kts | 79° |
| 2026-05-06 07:18 | -33.20172 | 160.97771 | 31065 ft | 473 kts | 79° |
| 2026-05-06 07:18 | -33.19323 | 161.04209 | 31066 ft | 472 kts | 79° |
| 2026-05-06 07:19 | -33.18300 | 161.11950 | 31070 ft | 472 kts | 79° |
| 2026-05-06 07:19 | -33.17273 | 161.19685 | 31078 ft | 472 kts | 79° |
| 2026-05-06 07:20 | -33.16244 | 161.27417 | 31062 ft | 472 kts | 79° |
| 2026-05-06 07:20 | -33.15210 | 161.35145 | 31079 ft | 471 kts | 79° |
| 2026-05-06 07:21 | -33.14168 | 161.42868 | 31070 ft | 471 kts | 79° |
| 2026-05-06 07:21 | -33.13131 | 161.50534 | 31077 ft | 471 kts | 79° |
| 2026-05-06 07:22 | -33.12080 | 161.58245 | 31077 ft | 471 kts | 79° |
| 2026-05-06 07:22 | -33.11026 | 161.65954 | 31085 ft | 471 kts | 79° |
| 2026-05-06 07:23 | -33.09968 | 161.73659 | 31082 ft | 471 kts | 79° |
| 2026-05-06 07:23 | -33.08905 | 161.81356 | 31091 ft | 471 kts | 79° |
| 2026-05-06 07:24 | -33.07837 | 161.89053 | 31091 ft | 471 kts | 79° |
| 2026-05-06 07:24 | -33.06761 | 161.96752 | 31085 ft | 471 kts | 79° |
| 2026-05-06 07:25 | -33.05677 | 162.04453 | 31088 ft | 470 kts | 79° |
| 2026-05-06 07:25 | -33.04593 | 162.12129 | 31094 ft | 469 kts | 79° |
| 2026-05-06 07:26 | -33.03511 | 162.19797 | 31089 ft | 469 kts | 79° |
| 2026-05-06 07:26 | -33.02422 | 162.27470 | 31088 ft | 470 kts | 79° |
| 2026-05-06 07:27 | -33.01326 | 162.35139 | 31094 ft | 470 kts | 79° |
| 2026-05-06 07:27 | -33.00226 | 162.42807 | 31100 ft | 470 kts | 79° |
| 2026-05-06 07:28 | -32.99124 | 162.50477 | 31100 ft | 470 kts | 79° |
| 2026-05-06 07:28 | -32.97459 | 162.61978 | 31099 ft | 470 kts | 79° |
| 2026-05-06 07:29 | -32.96348 | 162.69639 | 31100 ft | 469 kts | 78° |
| 2026-05-06 07:29 | -32.95227 | 162.77292 | 31099 ft | 469 kts | 78° |
| 2026-05-06 07:30 | -32.94108 | 162.84954 | 31099 ft | 469 kts | 78° |
| 2026-05-06 07:30 | -32.92985 | 162.92553 | 31109 ft | 469 kts | 78° |
| 2026-05-06 07:31 | -32.91868 | 163.00207 | 31109 ft | 470 kts | 81° |
| 2026-05-06 07:31 | -32.91040 | 163.07924 | 31110 ft | 470 kts | 82° |
| 2026-05-06 07:32 | -32.90223 | 163.15646 | 31109 ft | 470 kts | 82° |
| 2026-05-06 07:32 | -32.89401 | 163.23366 | 31111 ft | 470 kts | 82° |
| 2026-05-06 07:33 | -32.88572 | 163.31084 | 31110 ft | 470 kts | 81° |
| 2026-05-06 07:33 | -32.87742 | 163.38794 | 31119 ft | 470 kts | 81° |
| 2026-05-06 07:34 | -32.86904 | 163.46505 | 31120 ft | 470 kts | 81° |
| 2026-05-06 07:34 | -32.86060 | 163.54214 | 31120 ft | 470 kts | 81° |
| 2026-05-06 07:35 | -32.85215 | 163.61921 | 31119 ft | 470 kts | 81° |
| 2026-05-06 07:35 | -32.84364 | 163.69630 | 31121 ft | 470 kts | 81° |
| 2026-05-06 07:36 | -32.83509 | 163.77344 | 31120 ft | 470 kts | 81° |
| 2026-05-06 07:36 | -32.82647 | 163.85051 | 31128 ft | 470 kts | 81° |
| 2026-05-06 07:37 | -32.81787 | 163.92700 | 31131 ft | 470 kts | 81° |
| 2026-05-06 07:37 | -32.80918 | 164.00405 | 31130 ft | 470 kts | 81° |
| 2026-05-06 07:38 | -32.80043 | 164.08102 | 31131 ft | 470 kts | 81° |
| 2026-05-06 07:38 | -32.79165 | 164.15801 | 31131 ft | 470 kts | 81° |
| 2026-05-06 07:39 | -32.78281 | 164.23496 | 31131 ft | 470 kts | 81° |
| 2026-05-06 07:39 | -32.77391 | 164.31188 | 31133 ft | 470 kts | 81° |
| 2026-05-06 07:40 | -32.76498 | 164.38883 | 31138 ft | 470 kts | 81° |
| 2026-05-06 07:40 | -32.75603 | 164.46572 | 31139 ft | 470 kts | 81° |
| 2026-05-06 07:41 | -32.74700 | 164.54269 | 31139 ft | 470 kts | 81° |
| 2026-05-06 07:41 | -32.73792 | 164.61963 | 31137 ft | 470 kts | 81° |
| 2026-05-06 07:42 | -32.72876 | 164.69660 | 31142 ft | 470 kts | 81° |
| 2026-05-06 07:42 | -32.71958 | 164.77352 | 31146 ft | 470 kts | 81° |
| 2026-05-06 07:43 | -32.71036 | 164.85039 | 31155 ft | 470 kts | 81° |
| 2026-05-06 07:43 | -32.70115 | 164.92678 | 31149 ft | 471 kts | 81° |
| 2026-05-06 07:44 | -32.69185 | 165.00366 | 31152 ft | 470 kts | 81° |
| 2026-05-06 07:44 | -32.68250 | 165.08051 | 31153 ft | 471 kts | 81° |
| 2026-05-06 07:45 | -32.67312 | 165.15741 | 31146 ft | 471 kts | 81° |
| 2026-05-06 07:45 | -32.66366 | 165.23433 | 31149 ft | 471 kts | 81° |
| 2026-05-06 07:46 | -32.65409 | 165.31131 | 31148 ft | 472 kts | 81° |
| 2026-05-06 07:46 | -32.64448 | 165.38833 | 31165 ft | 472 kts | 81° |
| 2026-05-06 07:47 | -32.63487 | 165.46532 | 31163 ft | 472 kts | 81° |
| 2026-05-06 07:47 | -32.62518 | 165.54236 | 31164 ft | 472 kts | 81° |
| 2026-05-06 07:48 | -32.61543 | 165.61949 | 31164 ft | 473 kts | 81° |
| 2026-05-06 07:48 | -32.60565 | 165.69661 | 31161 ft | 473 kts | 80° |
| 2026-05-06 07:49 | -32.59581 | 165.77381 | 31156 ft | 474 kts | 80° |
| 2026-05-06 07:49 | -32.58593 | 165.85103 | 31158 ft | 474 kts | 80° |
| 2026-05-06 07:50 | -32.57595 | 165.92833 | 31161 ft | 474 kts | 80° |
| 2026-05-06 07:50 | -32.56599 | 166.00515 | 31159 ft | 475 kts | 80° |
| 2026-05-06 07:51 | -32.55594 | 166.08251 | 31169 ft | 475 kts | 80° |
| 2026-05-06 07:51 | -32.54583 | 166.15989 | 31169 ft | 475 kts | 80° |
| 2026-05-06 07:52 | -32.53566 | 166.23719 | 31172 ft | 475 kts | 80° |
| 2026-05-06 07:52 | -32.52545 | 166.31448 | 31172 ft | 475 kts | 80° |
| 2026-05-06 07:53 | -32.51521 | 166.39169 | 31166 ft | 475 kts | 80° |
| 2026-05-06 07:53 | -32.50491 | 166.46887 | 31167 ft | 474 kts | 80° |
| 2026-05-06 07:54 | -32.49460 | 166.54595 | 31173 ft | 474 kts | 80° |
| 2026-05-06 07:54 | -32.48421 | 166.62294 | 31168 ft | 473 kts | 80° |
| 2026-05-06 07:55 | -32.47383 | 166.69977 | 31167 ft | 473 kts | 80° |
| 2026-05-06 07:55 | -32.46342 | 166.77663 | 31168 ft | 472 kts | 80° |
| 2026-05-06 07:56 | -32.45300 | 166.85342 | 31172 ft | 472 kts | 80° |
| 2026-05-06 07:56 | -32.44247 | 166.93013 | 31176 ft | 472 kts | 80° |
| 2026-05-06 07:57 | -32.43192 | 167.00628 | 31179 ft | 472 kts | 80° |
| 2026-05-06 07:57 | -32.42125 | 167.08336 | 31180 ft | 471 kts | 80° |
| 2026-05-06 07:58 | -32.41068 | 167.15941 | 31182 ft | 471 kts | 80° |
| 2026-05-06 07:58 | -32.39999 | 167.23596 | 31182 ft | 472 kts | 80° |
| 2026-05-06 07:59 | -32.38924 | 167.31247 | 31196 ft | 472 kts | 80° |
| 2026-05-06 07:59 | -32.37849 | 167.38902 | 31201 ft | 472 kts | 80° |
| 2026-05-06 08:00 | -32.36766 | 167.46555 | 31200 ft | 472 kts | 80° |
| 2026-05-06 08:00 | -32.35672 | 167.54204 | 31197 ft | 472 kts | 80° |
| 2026-05-06 08:01 | -32.34580 | 167.61858 | 31200 ft | 472 kts | 80° |
| 2026-05-06 08:01 | -32.33483 | 167.69506 | 31200 ft | 472 kts | 80° |
| 2026-05-06 08:02 | -32.32378 | 167.77156 | 31200 ft | 472 kts | 80° |
| 2026-05-06 08:02 | -32.31270 | 167.84798 | 31201 ft | 472 kts | 80° |
| 2026-05-06 08:03 | -32.30155 | 167.92453 | 31344 ft | 473 kts | 80° |
| 2026-05-06 08:03 | -32.29591 | 167.96282 | 31643 ft | 472 kts | 80° |
| 2026-05-06 08:03 | -32.29029 | 168.00100 | 31929 ft | 472 kts | 80° |
| 2026-05-06 08:04 | -32.28469 | 168.03920 | 32222 ft | 472 kts | 80° |
| 2026-05-06 08:04 | -32.27912 | 168.07739 | 32507 ft | 471 kts | 80° |
| 2026-05-06 08:04 | -32.27351 | 168.11554 | 32772 ft | 471 kts | 80° |
| 2026-05-06 08:04 | -32.26781 | 168.15373 | 32981 ft | 472 kts | 80° |
| 2026-05-06 08:05 | -32.26218 | 168.19193 | 33189 ft | 473 kts | 80° |
| 2026-05-06 08:05 | -32.25656 | 168.23029 | 33252 ft | 475 kts | 80° |
| 2026-05-06 08:05 | -32.24515 | 168.30707 | 33228 ft | 474 kts | 80° |
| 2026-05-06 08:06 | -32.23364 | 168.38368 | 33210 ft | 474 kts | 80° |
| 2026-05-06 08:06 | -32.22215 | 168.46029 | 33210 ft | 473 kts | 79° |
| 2026-05-06 08:07 | -32.21064 | 168.53629 | 33219 ft | 473 kts | 79° |
| 2026-05-06 08:07 | -32.19905 | 168.61275 | 33221 ft | 473 kts | 79° |
| 2026-05-06 08:08 | -32.18744 | 168.68910 | 33220 ft | 473 kts | 79° |
| 2026-05-06 08:08 | -32.17581 | 168.76547 | 33221 ft | 472 kts | 79° |
| 2026-05-06 08:09 | -32.16410 | 168.84174 | 33221 ft | 472 kts | 79° |
| 2026-05-06 08:09 | -32.15239 | 168.91797 | 33221 ft | 472 kts | 79° |
| 2026-05-06 08:10 | -32.14064 | 168.99403 | 33221 ft | 471 kts | 79° |
| 2026-05-06 08:10 | -32.13083 | 169.05725 | 33221 ft | 471 kts | 79° |
| 2026-05-06 08:11 | -32.11899 | 169.13322 | 33219 ft | 471 kts | 79° |
| 2026-05-06 08:11 | -32.10712 | 169.20923 | 33219 ft | 471 kts | 79° |
| 2026-05-06 08:12 | -32.09520 | 169.28518 | 33220 ft | 471 kts | 79° |
| 2026-05-06 08:12 | -32.08324 | 169.36107 | 33219 ft | 471 kts | 79° |
| 2026-05-06 08:13 | -32.07121 | 169.43701 | 33221 ft | 471 kts | 79° |
| 2026-05-06 08:13 | -32.05918 | 169.51281 | 33218 ft | 470 kts | 79° |
| 2026-05-06 08:14 | -32.04709 | 169.58860 | 33219 ft | 470 kts | 79° |
| 2026-05-06 08:14 | -32.03497 | 169.66431 | 33221 ft | 470 kts | 79° |
| 2026-05-06 08:15 | -32.02283 | 169.74004 | 33221 ft | 470 kts | 79° |
| 2026-05-06 08:15 | -32.01058 | 169.81578 | 33225 ft | 471 kts | 79° |
| 2026-05-06 08:16 | -31.99831 | 169.89150 | 33231 ft | 471 kts | 79° |
| 2026-05-06 08:16 | -31.98609 | 169.96671 | 33222 ft | 471 kts | 79° |
| 2026-05-06 08:17 | -31.97370 | 170.04236 | 33221 ft | 471 kts | 79° |
| 2026-05-06 08:17 | -31.96129 | 170.11803 | 33221 ft | 471 kts | 79° |
| 2026-05-06 08:18 | -31.94888 | 170.19370 | 33220 ft | 471 kts | 79° |
| 2026-05-06 08:18 | -31.93638 | 170.26931 | 33221 ft | 471 kts | 79° |
| 2026-05-06 08:19 | -31.92390 | 170.34496 | 33220 ft | 471 kts | 79° |
| 2026-05-06 08:19 | -31.91129 | 170.42056 | 33220 ft | 470 kts | 79° |
| 2026-05-06 08:20 | -31.89871 | 170.49602 | 33220 ft | 470 kts | 79° |
| 2026-05-06 08:20 | -31.88604 | 170.57150 | 33219 ft | 470 kts | 79° |
| 2026-05-06 08:21 | -31.87331 | 170.64701 | 33220 ft | 470 kts | 79° |
| 2026-05-06 08:21 | -31.86053 | 170.72245 | 33227 ft | 470 kts | 79° |
| 2026-05-06 08:22 | -31.84787 | 170.79743 | 33230 ft | 470 kts | 79° |
| 2026-05-06 08:22 | -31.83493 | 170.87283 | 33230 ft | 470 kts | 79° |
| 2026-05-06 08:23 | -31.82193 | 170.94823 | 33229 ft | 471 kts | 79° |
| 2026-05-06 08:23 | -31.80895 | 171.02363 | 33230 ft | 470 kts | 79° |
| 2026-05-06 08:24 | -31.79598 | 171.09892 | 33230 ft | 470 kts | 79° |
| 2026-05-06 08:24 | -31.78296 | 171.17417 | 33230 ft | 470 kts | 79° |
| 2026-05-06 08:25 | -31.76992 | 171.24933 | 33230 ft | 469 kts | 79° |
| 2026-05-06 08:25 | -31.75684 | 171.32443 | 33230 ft | 469 kts | 79° |
| 2026-05-06 08:26 | -31.74367 | 171.39955 | 33231 ft | 469 kts | 79° |
| 2026-05-06 08:26 | -31.73052 | 171.47458 | 33229 ft | 469 kts | 79° |
| 2026-05-06 08:27 | -31.71732 | 171.54956 | 33231 ft | 469 kts | 79° |
| 2026-05-06 08:27 | -31.70406 | 171.62440 | 33232 ft | 468 kts | 79° |
| 2026-05-06 08:28 | -31.69073 | 171.69921 | 33237 ft | 468 kts | 79° |
| 2026-05-06 08:28 | -31.67744 | 171.77392 | 33241 ft | 467 kts | 79° |
| 2026-05-06 08:29 | -31.66415 | 171.84861 | 33238 ft | 467 kts | 79° |
| 2026-05-06 08:29 | -31.65073 | 171.92324 | 33242 ft | 467 kts | 79° |
| 2026-05-06 08:30 | -31.63729 | 171.99793 | 33242 ft | 468 kts | 79° |
| 2026-05-06 08:30 | -31.62390 | 172.07200 | 33243 ft | 467 kts | 79° |
| 2026-05-06 08:31 | -31.61041 | 172.14655 | 33242 ft | 467 kts | 79° |
| 2026-05-06 08:31 | -31.59684 | 172.22107 | 33244 ft | 467 kts | 79° |
| 2026-05-06 08:32 | -31.58323 | 172.29554 | 33238 ft | 467 kts | 79° |
| 2026-05-06 08:32 | -31.56956 | 172.37007 | 33240 ft | 467 kts | 79° |
| 2026-05-06 08:33 | -31.55588 | 172.44453 | 33242 ft | 467 kts | 79° |
| 2026-05-06 08:33 | -31.54216 | 172.51896 | 33241 ft | 467 kts | 79° |
| 2026-05-06 08:34 | -31.52147 | 172.63054 | 33259 ft | 467 kts | 79° |
| 2026-05-06 08:35 | -31.50766 | 172.70490 | 33267 ft | 467 kts | 79° |
| 2026-05-06 08:35 | -31.49381 | 172.77922 | 33261 ft | 467 kts | 79° |
| 2026-05-06 08:36 | -31.47984 | 172.85352 | 33263 ft | 467 kts | 79° |
| 2026-05-06 08:36 | -31.46593 | 172.92778 | 33260 ft | 467 kts | 79° |
| 2026-05-06 08:37 | -31.45194 | 173.00201 | 33267 ft | 466 kts | 79° |
| 2026-05-06 08:37 | -31.43789 | 173.07610 | 33259 ft | 466 kts | 79° |
| 2026-05-06 08:38 | -31.42384 | 173.15013 | 33265 ft | 465 kts | 79° |
| 2026-05-06 08:38 | -31.40979 | 173.22403 | 33253 ft | 465 kts | 79° |
| 2026-05-06 08:39 | -31.39572 | 173.29783 | 33257 ft | 464 kts | 79° |
| 2026-05-06 08:39 | -31.38161 | 173.37104 | 33258 ft | 464 kts | 79° |
| 2026-05-06 08:40 | -31.36740 | 173.44472 | 33263 ft | 464 kts | 79° |
| 2026-05-06 08:40 | -31.35320 | 173.51830 | 33261 ft | 464 kts | 79° |
| 2026-05-06 08:41 | -31.33898 | 173.59186 | 33260 ft | 463 kts | 79° |
| 2026-05-06 08:41 | -31.32471 | 173.66536 | 33262 ft | 463 kts | 79° |
| 2026-05-06 08:42 | -31.31039 | 173.73879 | 33272 ft | 463 kts | 79° |
| 2026-05-06 08:42 | -31.29603 | 173.81224 | 33271 ft | 463 kts | 79° |
| 2026-05-06 08:43 | -31.28167 | 173.88565 | 33267 ft | 463 kts | 79° |
| 2026-05-06 08:43 | -31.26722 | 173.95897 | 33275 ft | 463 kts | 79° |
| 2026-05-06 08:44 | -31.25279 | 174.03225 | 33265 ft | 462 kts | 79° |
| 2026-05-06 08:44 | -31.23830 | 174.10530 | 33252 ft | 461 kts | 79° |
| 2026-05-06 08:45 | -31.22394 | 174.17784 | 33250 ft | 461 kts | 79° |
| 2026-05-06 08:45 | -31.20941 | 174.25087 | 33260 ft | 461 kts | 79° |
| 2026-05-06 08:46 | -31.19479 | 174.32385 | 33266 ft | 461 kts | 79° |
| 2026-05-06 08:46 | -31.18014 | 174.39678 | 33258 ft | 462 kts | 79° |
| 2026-05-06 08:47 | -31.16545 | 174.46977 | 33259 ft | 462 kts | 79° |
| 2026-05-06 08:47 | -31.15070 | 174.54269 | 33252 ft | 462 kts | 79° |
| 2026-05-06 08:48 | -31.13595 | 174.61562 | 33255 ft | 462 kts | 79° |
| 2026-05-06 08:48 | -31.12115 | 174.68852 | 33250 ft | 461 kts | 79° |
| 2026-05-06 08:49 | -31.10637 | 174.76128 | 33252 ft | 461 kts | 79° |
| 2026-05-06 08:49 | -31.09148 | 174.83403 | 33255 ft | 461 kts | 79° |
| 2026-05-06 08:50 | -31.07658 | 174.90668 | 33278 ft | 461 kts | 78° |
| 2026-05-06 08:50 | -31.06185 | 174.97942 | 33277 ft | 460 kts | 79° |
| 2026-05-06 08:51 | -31.04711 | 175.05199 | 33278 ft | 460 kts | 78° |
| 2026-05-06 08:51 | -31.03203 | 175.12452 | 33280 ft | 460 kts | 78° |
| 2026-05-06 08:52 | -31.01693 | 175.19644 | 33279 ft | 460 kts | 78° |
| 2026-05-06 08:52 | -31.00182 | 175.26888 | 33281 ft | 460 kts | 78° |
| 2026-05-06 08:53 | -30.98675 | 175.34126 | 33279 ft | 459 kts | 78° |
| 2026-05-06 08:53 | -30.97166 | 175.41358 | 33275 ft | 459 kts | 78° |
| 2026-05-06 08:54 | -30.95660 | 175.48593 | 33252 ft | 459 kts | 78° |
| 2026-05-06 08:54 | -30.94137 | 175.55814 | 33250 ft | 459 kts | 78° |
| 2026-05-06 08:55 | -30.92596 | 175.63034 | 33252 ft | 459 kts | 78° |
| 2026-05-06 08:55 | -30.91066 | 175.70253 | 33248 ft | 459 kts | 78° |
| 2026-05-06 08:56 | -30.89497 | 175.77465 | 33249 ft | 459 kts | 77° |
| 2026-05-06 08:56 | -30.87837 | 175.84645 | 33248 ft | 459 kts | 77° |
| 2026-05-06 08:57 | -30.86218 | 175.91788 | 33247 ft | 459 kts | 77° |
| 2026-05-06 08:57 | -30.84572 | 175.98973 | 33254 ft | 459 kts | 77° |
| 2026-05-06 08:58 | -30.82919 | 176.06146 | 33258 ft | 458 kts | 76° |
| 2026-05-06 08:58 | -30.81266 | 176.13282 | 33244 ft | 456 kts | 76° |
| 2026-05-06 08:59 | -30.79615 | 176.20410 | 33253 ft | 456 kts | 76° |
| 2026-05-06 08:59 | -30.77963 | 176.27533 | 33250 ft | 456 kts | 76° |
| 2026-05-06 09:00 | -30.76299 | 176.34655 | 33240 ft | 456 kts | 76° |
| 2026-05-06 09:00 | -30.74639 | 176.41763 | 33240 ft | 456 kts | 76° |
| 2026-05-06 09:01 | -30.72971 | 176.48884 | 33240 ft | 456 kts | 76° |
| 2026-05-06 09:01 | -30.71299 | 176.55983 | 33242 ft | 456 kts | 76° |
| 2026-05-06 09:02 | -30.69906 | 176.61883 | 33242 ft | 455 kts | 76° |
| 2026-05-06 09:02 | -30.68226 | 176.68975 | 33242 ft | 455 kts | 76° |
| 2026-05-06 09:03 | -30.66271 | 176.77264 | 33242 ft | 455 kts | 76° |
| 2026-05-06 09:03 | -30.64869 | 176.83148 | 33241 ft | 455 kts | 76° |
| 2026-05-06 09:04 | -30.63185 | 176.90222 | 33237 ft | 454 kts | 76° |
| 2026-05-06 09:04 | -30.61500 | 176.97286 | 33238 ft | 454 kts | 76° |
| 2026-05-06 09:05 | -30.59822 | 177.04347 | 33242 ft | 454 kts | 76° |
| 2026-05-06 09:05 | -30.58142 | 177.11395 | 33244 ft | 453 kts | 75° |
| 2026-05-06 09:06 | -30.56447 | 177.18434 | 33240 ft | 453 kts | 75° |
| 2026-05-06 09:06 | -30.54751 | 177.25468 | 33243 ft | 452 kts | 75° |
| 2026-05-06 09:07 | -30.53027 | 177.32480 | 33244 ft | 452 kts | 75° |
| 2026-05-06 09:07 | -30.51312 | 177.39491 | 33246 ft | 452 kts | 75° |
| 2026-05-06 09:08 | -30.49609 | 177.46503 | 33236 ft | 452 kts | 75° |
| 2026-05-06 09:08 | -30.47925 | 177.53516 | 33231 ft | 452 kts | 75° |
| 2026-05-06 09:09 | -30.46224 | 177.60511 | 33229 ft | 451 kts | 74° |
| 2026-05-06 09:09 | -30.44505 | 177.67444 | 33231 ft | 450 kts | 75° |
| 2026-05-06 09:10 | -30.42784 | 177.74418 | 33230 ft | 450 kts | 75° |
| 2026-05-06 09:10 | -30.41068 | 177.81395 | 33232 ft | 450 kts | 74° |
| 2026-05-06 09:11 | -30.39345 | 177.88364 | 33231 ft | 450 kts | 74° |
| 2026-05-06 09:11 | -30.37621 | 177.95332 | 33230 ft | 450 kts | 74° |
| 2026-05-06 09:12 | -30.35896 | 178.02295 | 33232 ft | 450 kts | 74° |
| 2026-05-06 09:12 | -30.34174 | 178.09247 | 33232 ft | 449 kts | 74° |
| 2026-05-06 09:13 | -30.32443 | 178.16197 | 33229 ft | 449 kts | 74° |
| 2026-05-06 09:13 | -30.30723 | 178.23152 | 33230 ft | 449 kts | 74° |
| 2026-05-06 09:14 | -30.28990 | 178.30097 | 33225 ft | 449 kts | 74° |
| 2026-05-06 09:14 | -30.27245 | 178.37035 | 33220 ft | 449 kts | 73° |
| 2026-05-06 09:15 | -30.25486 | 178.43973 | 33226 ft | 450 kts | 74° |
| 2026-05-06 09:15 | -30.23743 | 178.50873 | 33241 ft | 450 kts | 74° |
| 2026-05-06 09:16 | -30.21986 | 178.57814 | 33240 ft | 450 kts | 74° |
| 2026-05-06 09:16 | -30.20226 | 178.64754 | 33271 ft | 450 kts | 73° |
| 2026-05-06 09:17 | -30.18470 | 178.71694 | 33279 ft | 450 kts | 73° |
| 2026-05-06 09:17 | -30.16702 | 178.78625 | 33277 ft | 449 kts | 73° |
| 2026-05-06 09:18 | -30.14936 | 178.85547 | 33281 ft | 449 kts | 73° |
| 2026-05-06 09:18 | -30.13163 | 178.92457 | 33280 ft | 449 kts | 73° |
| 2026-05-06 09:19 | -30.11392 | 178.99363 | 33282 ft | 448 kts | 73° |
| 2026-05-06 09:19 | -30.09620 | 179.06261 | 33279 ft | 448 kts | 73° |
| 2026-05-06 09:20 | -30.07848 | 179.13156 | 33279 ft | 448 kts | 72° |
| 2026-05-06 09:20 | -30.06069 | 179.20036 | 33282 ft | 447 kts | 72° |
| 2026-05-06 09:21 | -30.04289 | 179.26910 | 33292 ft | 447 kts | 72° |
| 2026-05-06 09:21 | -30.02506 | 179.33778 | 33311 ft | 446 kts | 72° |
| 2026-05-06 09:22 | -30.00725 | 179.40630 | 33312 ft | 446 kts | 72° |
| 2026-05-06 09:22 | -29.98940 | 179.47480 | 33312 ft | 446 kts | 72° |
| 2026-05-06 09:23 | -29.97148 | 179.54330 | 33311 ft | 446 kts | 71° |
| 2026-05-06 09:23 | -29.95355 | 179.61171 | 33310 ft | 446 kts | 71° |
| 2026-05-06 09:24 | -29.93560 | 179.68002 | 33311 ft | 445 kts | 71° |
| 2026-05-06 09:24 | -29.91781 | 179.74782 | 33311 ft | 445 kts | 71° |
| 2026-05-06 09:25 | -29.89980 | 179.81609 | 33312 ft | 445 kts | 71° |
| 2026-05-06 09:25 | -29.88175 | 179.88426 | 33277 ft | 445 kts | 71° |
| 2026-05-06 09:26 | -29.86365 | 179.95246 | 33248 ft | 445 kts | 71° |
| 2026-05-06 09:26 | -29.84560 | -179.97942 | 33245 ft | 445 kts | 71° |
| 2026-05-06 09:27 | -29.82742 | -179.91137 | 33204 ft | 445 kts | 71° |
| 2026-05-06 09:27 | -29.80930 | -179.84351 | 33108 ft | 443 kts | 71° |
| 2026-05-06 09:28 | -29.79119 | -179.77579 | 33014 ft | 443 kts | 71° |
| 2026-05-06 09:28 | -29.77304 | -179.70787 | 32926 ft | 445 kts | 71° |
| 2026-05-06 09:29 | -29.75470 | -179.63983 | 32893 ft | 446 kts | 71° |
| 2026-05-06 09:29 | -29.73635 | -179.57167 | 32887 ft | 446 kts | 71° |
| 2026-05-06 09:30 | -29.71795 | -179.50361 | 32886 ft | 445 kts | 70° |
| 2026-05-06 09:30 | -29.69959 | -179.43553 | 32887 ft | 446 kts | 70° |
| 2026-05-06 09:31 | -29.68112 | -179.36748 | 32887 ft | 445 kts | 70° |
| 2026-05-06 09:31 | -29.66273 | -179.29947 | 32899 ft | 446 kts | 70° |
| 2026-05-06 09:32 | -29.64414 | -179.23148 | 32887 ft | 446 kts | 70° |
| 2026-05-06 09:32 | -29.62569 | -179.16403 | 32888 ft | 445 kts | 70° |
| 2026-05-06 09:33 | -29.60714 | -179.09609 | 32888 ft | 445 kts | 70° |
| 2026-05-06 09:33 | -29.58849 | -179.02824 | 32890 ft | 446 kts | 69° |
| 2026-05-06 09:34 | -29.56984 | -178.96031 | 32882 ft | 446 kts | 69° |
| 2026-05-06 09:34 | -29.55120 | -178.89239 | 32880 ft | 445 kts | 69° |
| 2026-05-06 09:35 | -29.53256 | -178.82456 | 32881 ft | 445 kts | 69° |
| 2026-05-06 09:35 | -29.51378 | -178.75675 | 32881 ft | 446 kts | 69° |
| 2026-05-06 09:36 | -29.49498 | -178.68894 | 32880 ft | 446 kts | 69° |
| 2026-05-06 09:36 | -29.47614 | -178.62124 | 32880 ft | 445 kts | 69° |
| 2026-05-06 09:37 | -29.45736 | -178.55350 | 32880 ft | 445 kts | 68° |
| 2026-05-06 09:37 | -29.43844 | -178.48579 | 32881 ft | 446 kts | 68° |
| 2026-05-06 09:38 | -29.41959 | -178.41803 | 32882 ft | 446 kts | 69° |
| 2026-05-06 09:38 | -29.40083 | -178.35027 | 32881 ft | 446 kts | 68° |
| 2026-05-06 09:39 | -29.38183 | -178.28260 | 32878 ft | 446 kts | 68° |
| 2026-05-06 09:39 | -29.36280 | -178.21496 | 32877 ft | 446 kts | 68° |
| 2026-05-06 09:40 | -29.34385 | -178.14784 | 32879 ft | 446 kts | 68° |
| 2026-05-06 09:40 | -29.31499 | -178.04662 | 32880 ft | 445 kts | 68° |
| 2026-05-06 09:41 | -29.29569 | -177.97915 | 32880 ft | 446 kts | 68° |
| 2026-05-06 09:41 | -29.27642 | -177.91161 | 32875 ft | 446 kts | 68° |
| 2026-05-06 09:42 | -29.25721 | -177.84414 | 32884 ft | 446 kts | 68° |
| 2026-05-06 09:42 | -29.23793 | -177.77659 | 32882 ft | 446 kts | 68° |
| 2026-05-06 09:43 | -29.21863 | -177.70909 | 32880 ft | 446 kts | 68° |
| 2026-05-06 09:43 | -29.19930 | -177.64155 | 32879 ft | 446 kts | 68° |
| 2026-05-06 09:44 | -29.17990 | -177.57407 | 32880 ft | 447 kts | 68° |
| 2026-05-06 09:44 | -29.16046 | -177.50657 | 32882 ft | 446 kts | 68° |
| 2026-05-06 09:45 | -29.14101 | -177.43917 | 32880 ft | 446 kts | 67° |
| 2026-05-06 09:45 | -29.12153 | -177.37186 | 32880 ft | 446 kts | 68° |
| 2026-05-06 09:46 | -29.10219 | -177.30497 | 32888 ft | 446 kts | 68° |
| 2026-05-06 09:46 | -29.08260 | -177.23758 | 32889 ft | 447 kts | 68° |
| 2026-05-06 09:47 | -29.06303 | -177.17024 | 32889 ft | 447 kts | 68° |
| 2026-05-06 09:47 | -29.04341 | -177.10290 | 32902 ft | 447 kts | 68° |
| 2026-05-06 09:48 | -29.02372 | -177.03552 | 32888 ft | 447 kts | 67° |
| 2026-05-06 09:48 | -29.00398 | -176.96814 | 32900 ft | 447 kts | 68° |
| 2026-05-06 09:49 | -28.98420 | -176.90080 | 32887 ft | 447 kts | 68° |
| 2026-05-06 09:49 | -28.96439 | -176.83345 | 32894 ft | 447 kts | 68° |
| 2026-05-06 09:50 | -28.94459 | -176.76610 | 32887 ft | 447 kts | 68° |
| 2026-05-06 09:50 | -28.92474 | -176.69887 | 32888 ft | 447 kts | 68° |
| 2026-05-06 09:51 | -28.90492 | -176.63161 | 32889 ft | 447 kts | 68° |
| 2026-05-06 09:51 | -28.88510 | -176.56447 | 32899 ft | 446 kts | 67° |
| 2026-05-06 09:52 | -28.86847 | -176.50880 | 32902 ft | 446 kts | 67° |
| 2026-05-06 09:52 | -28.84530 | -176.43085 | 32888 ft | 446 kts | 67° |
| 2026-05-06 09:53 | -28.82526 | -176.36383 | 32895 ft | 446 kts | 67° |
| 2026-05-06 09:53 | -28.80519 | -176.29686 | 32887 ft | 446 kts | 67° |
| 2026-05-06 09:54 | -28.78844 | -176.24077 | 32889 ft | 446 kts | 68° |
| 2026-05-06 09:54 | -28.76868 | -176.17378 | 32887 ft | 446 kts | 68° |
| 2026-05-06 09:55 | -28.74855 | -176.10694 | 32904 ft | 446 kts | 67° |
| 2026-05-06 09:55 | -28.72861 | -176.04059 | 32887 ft | 445 kts | 67° |
| 2026-05-06 09:56 | -28.70840 | -175.97385 | 32887 ft | 446 kts | 67° |
| 2026-05-06 09:56 | -28.68823 | -175.90697 | 32882 ft | 447 kts | 68° |
| 2026-05-06 09:57 | -28.66795 | -175.84006 | 32882 ft | 447 kts | 67° |
| 2026-05-06 09:57 | -28.64759 | -175.77323 | 32879 ft | 447 kts | 67° |
| 2026-05-06 09:58 | -28.62721 | -175.70639 | 32879 ft | 447 kts | 67° |
| 2026-05-06 09:58 | -28.60682 | -175.63962 | 32880 ft | 447 kts | 67° |
| 2026-05-06 09:59 | -28.58641 | -175.57279 | 32879 ft | 447 kts | 67° |
| 2026-05-06 09:59 | -28.56601 | -175.50602 | 32880 ft | 447 kts | 67° |
| 2026-05-06 10:00 | -28.54563 | -175.43926 | 32880 ft | 447 kts | 67° |
| 2026-05-06 10:00 | -28.52504 | -175.37251 | 32880 ft | 447 kts | 67° |
| 2026-05-06 10:01 | -28.50438 | -175.30582 | 32879 ft | 447 kts | 67° |
| 2026-05-06 10:01 | -28.48380 | -175.23908 | 32880 ft | 447 kts | 67° |
| 2026-05-06 10:02 | -28.46328 | -175.17230 | 32880 ft | 448 kts | 67° |
| 2026-05-06 10:02 | -28.44264 | -175.10554 | 32877 ft | 448 kts | 67° |
| 2026-05-06 10:03 | -28.42194 | -175.03875 | 32870 ft | 448 kts | 67° |
| 2026-05-06 10:03 | -28.40127 | -174.97197 | 32870 ft | 448 kts | 67° |
| 2026-05-06 10:04 | -28.38062 | -174.90566 | 32869 ft | 449 kts | 67° |
| 2026-05-06 10:04 | -28.35979 | -174.83884 | 32870 ft | 449 kts | 67° |
| 2026-05-06 10:05 | -28.33891 | -174.77201 | 32869 ft | 449 kts | 67° |
| 2026-05-06 10:05 | -28.31798 | -174.70527 | 32869 ft | 449 kts | 67° |
| 2026-05-06 10:06 | -28.29695 | -174.63844 | 32871 ft | 449 kts | 67° |
| 2026-05-06 10:06 | -28.27587 | -174.57173 | 32871 ft | 449 kts | 67° |
| 2026-05-06 10:07 | -28.25488 | -174.50495 | 32870 ft | 449 kts | 67° |
| 2026-05-06 10:07 | -28.23375 | -174.43821 | 32870 ft | 449 kts | 67° |
| 2026-05-06 10:08 | -28.21269 | -174.37149 | 32870 ft | 450 kts | 67° |
| 2026-05-06 10:08 | -28.19163 | -174.30481 | 32870 ft | 449 kts | 67° |
| 2026-05-06 10:09 | -28.17040 | -174.23829 | 32864 ft | 448 kts | 66° |
| 2026-05-06 10:09 | -28.14919 | -174.17218 | 32862 ft | 450 kts | 66° |
| 2026-05-06 10:10 | -28.12790 | -174.10558 | 32861 ft | 450 kts | 66° |
| 2026-05-06 10:10 | -28.10661 | -174.03898 | 32859 ft | 450 kts | 66° |
| 2026-05-06 10:11 | -28.08520 | -173.97237 | 32858 ft | 450 kts | 66° |
| 2026-05-06 10:11 | -28.06380 | -173.90578 | 32873 ft | 450 kts | 66° |
| 2026-05-06 10:12 | -28.04245 | -173.83929 | 32880 ft | 450 kts | 66° |
| 2026-05-06 10:12 | -28.02104 | -173.77277 | 32879 ft | 450 kts | 66° |
| 2026-05-06 10:13 | -27.99959 | -173.70627 | 32880 ft | 450 kts | 66° |
| 2026-05-06 10:13 | -27.97825 | -173.63978 | 32881 ft | 449 kts | 67° |
| 2026-05-06 10:14 | -27.95690 | -173.57332 | 32878 ft | 449 kts | 66° |
| 2026-05-06 10:14 | -27.93540 | -173.50696 | 32871 ft | 449 kts | 66° |
| 2026-05-06 10:15 | -27.91380 | -173.44066 | 32871 ft | 449 kts | 66° |
| 2026-05-06 10:15 | -27.89223 | -173.37434 | 32870 ft | 450 kts | 66° |
| 2026-05-06 10:16 | -27.87059 | -173.30797 | 32871 ft | 450 kts | 66° |
| 2026-05-06 10:16 | -27.84892 | -173.24170 | 32872 ft | 450 kts | 66° |
| 2026-05-06 10:17 | -27.82719 | -173.17538 | 32870 ft | 450 kts | 66° |
| 2026-05-06 10:17 | -27.80543 | -173.10911 | 32871 ft | 450 kts | 66° |
| 2026-05-06 10:18 | -27.78380 | -173.04327 | 32870 ft | 450 kts | 66° |
| 2026-05-06 10:18 | -27.76199 | -172.97699 | 32871 ft | 450 kts | 66° |
| 2026-05-06 10:19 | -27.74015 | -172.91077 | 32870 ft | 450 kts | 66° |
| 2026-05-06 10:19 | -27.71823 | -172.84458 | 32871 ft | 450 kts | 66° |
| 2026-05-06 10:20 | -27.69629 | -172.77844 | 32872 ft | 450 kts | 66° |
| 2026-05-06 10:20 | -27.67426 | -172.71229 | 32871 ft | 450 kts | 66° |
| 2026-05-06 10:21 | -27.65226 | -172.64620 | 32870 ft | 450 kts | 66° |
| 2026-05-06 10:21 | -27.63029 | -172.58015 | 32871 ft | 450 kts | 66° |
| 2026-05-06 10:22 | -27.60827 | -172.51410 | 32871 ft | 450 kts | 66° |
| 2026-05-06 10:22 | -27.58619 | -172.44813 | 32870 ft | 450 kts | 66° |
| 2026-05-06 10:23 | -27.56410 | -172.38212 | 32871 ft | 450 kts | 66° |
| 2026-05-06 10:23 | -27.54199 | -172.31618 | 32870 ft | 450 kts | 66° |
| 2026-05-06 10:24 | -27.51987 | -172.25025 | 32870 ft | 450 kts | 66° |
| 2026-05-06 10:24 | -27.49769 | -172.18434 | 32870 ft | 450 kts | 66° |
| 2026-05-06 10:25 | -27.47547 | -172.11846 | 32870 ft | 450 kts | 66° |
| 2026-05-06 10:25 | -27.45338 | -172.05306 | 32871 ft | 450 kts | 66° |
| 2026-05-06 10:26 | -27.43113 | -171.98717 | 32870 ft | 450 kts | 66° |
| 2026-05-06 10:26 | -27.40875 | -171.92124 | 32870 ft | 451 kts | 66° |
| 2026-05-06 10:27 | -27.38636 | -171.85528 | 32870 ft | 451 kts | 66° |
| 2026-05-06 10:27 | -27.36392 | -171.78933 | 32870 ft | 451 kts | 66° |
| 2026-05-06 10:28 | -27.34147 | -171.72335 | 32871 ft | 452 kts | 66° |
| 2026-05-06 10:28 | -27.31896 | -171.65741 | 32871 ft | 452 kts | 66° |
| 2026-05-06 10:29 | -27.29641 | -171.59146 | 32879 ft | 452 kts | 66° |
| 2026-05-06 10:29 | -27.27384 | -171.52551 | 32882 ft | 452 kts | 66° |
| 2026-05-06 10:30 | -27.25121 | -171.45958 | 32880 ft | 452 kts | 66° |
| 2026-05-06 10:30 | -27.22855 | -171.39364 | 32881 ft | 452 kts | 66° |
| 2026-05-06 10:31 | -27.20584 | -171.32767 | 32880 ft | 453 kts | 66° |
| 2026-05-06 10:31 | -27.18313 | -171.26176 | 32879 ft | 453 kts | 66° |
| 2026-05-06 10:32 | -27.16048 | -171.19626 | 32881 ft | 453 kts | 66° |
| 2026-05-06 10:32 | -27.13759 | -171.13034 | 32881 ft | 453 kts | 66° |
| 2026-05-06 10:33 | -27.11472 | -171.06441 | 32878 ft | 453 kts | 66° |
| 2026-05-06 10:33 | -27.09178 | -170.99845 | 32881 ft | 454 kts | 66° |
| 2026-05-06 10:34 | -27.06882 | -170.93246 | 32882 ft | 454 kts | 66° |
| 2026-05-06 10:34 | -27.04583 | -170.86646 | 32883 ft | 454 kts | 66° |
| 2026-05-06 10:35 | -27.02281 | -170.80050 | 32882 ft | 455 kts | 66° |
| 2026-05-06 10:35 | -26.99970 | -170.73447 | 32881 ft | 455 kts | 66° |
| 2026-05-06 10:36 | -26.97658 | -170.66852 | 32882 ft | 455 kts | 66° |
| 2026-05-06 10:36 | -26.95342 | -170.60244 | 33229 ft | 455 kts | 66° |
| 2026-05-06 10:37 | -26.94186 | -170.56944 | 33546 ft | 455 kts | 66° |
| 2026-05-06 10:37 | -26.93026 | -170.53649 | 33801 ft | 454 kts | 65° |
| 2026-05-06 10:37 | -26.91880 | -170.50400 | 34033 ft | 455 kts | 65° |
| 2026-05-06 10:37 | -26.90717 | -170.47105 | 34261 ft | 455 kts | 65° |
| 2026-05-06 10:38 | -26.89554 | -170.43803 | 34469 ft | 456 kts | 65° |
| 2026-05-06 10:38 | -26.88387 | -170.40500 | 34648 ft | 457 kts | 65° |
| 2026-05-06 10:38 | -26.87215 | -170.37184 | 34815 ft | 458 kts | 65° |
| 2026-05-06 10:38 | -26.86039 | -170.33865 | 34917 ft | 460 kts | 65° |
| 2026-05-06 10:39 | -26.83682 | -170.27206 | 34898 ft | 460 kts | 65° |
| 2026-05-06 10:39 | -26.81320 | -170.20555 | 34883 ft | 460 kts | 65° |
| 2026-05-06 10:40 | -26.78959 | -170.13911 | 34881 ft | 460 kts | 65° |
| 2026-05-06 10:40 | -26.76591 | -170.07261 | 34879 ft | 460 kts | 65° |
| 2026-05-06 10:41 | -26.74225 | -170.00617 | 34879 ft | 460 kts | 65° |
| 2026-05-06 10:41 | -26.71847 | -169.93966 | 34880 ft | 461 kts | 65° |
| 2026-05-06 10:42 | -26.69464 | -169.87309 | 34887 ft | 461 kts | 65° |
| 2026-05-06 10:42 | -26.67083 | -169.80665 | 34909 ft | 461 kts | 65° |
| 2026-05-06 10:43 | -26.64696 | -169.74017 | 34909 ft | 461 kts | 65° |
| 2026-05-06 10:44 | -26.61516 | -169.65170 | 34906 ft | 461 kts | 65° |
| 2026-05-06 10:44 | -26.59122 | -169.58528 | 34892 ft | 461 kts | 65° |
| 2026-05-06 10:45 | -26.56732 | -169.51896 | 34890 ft | 459 kts | 65° |
| 2026-05-06 10:45 | -26.54337 | -169.45282 | 34890 ft | 459 kts | 65° |
| 2026-05-06 10:46 | -26.51942 | -169.38666 | 34891 ft | 459 kts | 65° |
| 2026-05-06 10:46 | -26.49541 | -169.32054 | 34890 ft | 459 kts | 65° |
| 2026-05-06 10:47 | -26.47143 | -169.25449 | 34890 ft | 459 kts | 65° |
| 2026-05-06 10:47 | -26.44734 | -169.18844 | 34891 ft | 459 kts | 65° |
| 2026-05-06 10:48 | -26.42326 | -169.12247 | 34890 ft | 459 kts | 65° |
| 2026-05-06 10:48 | -26.39921 | -169.05652 | 34890 ft | 459 kts | 65° |
| 2026-05-06 10:49 | -26.37507 | -168.99061 | 34890 ft | 459 kts | 65° |
| 2026-05-06 10:49 | -26.35092 | -168.92475 | 34890 ft | 459 kts | 65° |
| 2026-05-06 10:50 | -26.32690 | -168.85930 | 34890 ft | 459 kts | 65° |
| 2026-05-06 10:50 | -26.30269 | -168.79348 | 34890 ft | 459 kts | 65° |
| 2026-05-06 10:51 | -26.27846 | -168.72763 | 34890 ft | 459 kts | 65° |
| 2026-05-06 10:51 | -26.25426 | -168.66181 | 34890 ft | 459 kts | 65° |
| 2026-05-06 10:52 | -26.22996 | -168.59610 | 34890 ft | 459 kts | 65° |
| 2026-05-06 10:52 | -26.20563 | -168.53044 | 34890 ft | 459 kts | 65° |
| 2026-05-06 10:53 | -26.18128 | -168.46476 | 34890 ft | 459 kts | 65° |
| 2026-05-06 10:53 | -26.15689 | -168.39917 | 34890 ft | 458 kts | 65° |
| 2026-05-06 10:54 | -26.13250 | -168.33364 | 34890 ft | 458 kts | 65° |
| 2026-05-06 10:54 | -26.10813 | -168.26812 | 34890 ft | 458 kts | 65° |
| 2026-05-06 10:55 | -26.08374 | -168.20261 | 34891 ft | 458 kts | 65° |
| 2026-05-06 10:55 | -26.05921 | -168.13716 | 34891 ft | 458 kts | 65° |
| 2026-05-06 10:56 | -26.03488 | -168.07213 | 34890 ft | 458 kts | 64° |
| 2026-05-06 10:56 | -26.01033 | -168.00672 | 34890 ft | 458 kts | 65° |
| 2026-05-06 10:57 | -25.98573 | -167.94132 | 34890 ft | 458 kts | 64° |
| 2026-05-06 10:57 | -25.96106 | -167.87600 | 34891 ft | 458 kts | 64° |
| 2026-05-06 10:58 | -25.93650 | -167.81061 | 34890 ft | 458 kts | 64° |
| 2026-05-06 10:58 | -25.91186 | -167.74540 | 34890 ft | 458 kts | 64° |
| 2026-05-06 10:59 | -25.88721 | -167.68022 | 34891 ft | 458 kts | 64° |
| 2026-05-06 10:59 | -25.86260 | -167.61501 | 34890 ft | 458 kts | 64° |
| 2026-05-06 11:00 | -25.83785 | -167.54982 | 34890 ft | 458 kts | 64° |
| 2026-05-06 11:00 | -25.81309 | -167.48466 | 34892 ft | 458 kts | 64° |
| 2026-05-06 11:01 | -25.78824 | -167.41949 | 34899 ft | 458 kts | 64° |
| 2026-05-06 11:01 | -25.76357 | -167.35478 | 34900 ft | 459 kts | 64° |
| 2026-05-06 11:02 | -25.73867 | -167.28963 | 34900 ft | 459 kts | 64° |
| 2026-05-06 11:02 | -25.71372 | -167.22438 | 34900 ft | 459 kts | 64° |
| 2026-05-06 11:03 | -25.68876 | -167.15916 | 34900 ft | 460 kts | 64° |
| 2026-05-06 11:03 | -25.66373 | -167.09393 | 34900 ft | 460 kts | 64° |
| 2026-05-06 11:04 | -25.63863 | -167.02868 | 34901 ft | 460 kts | 64° |
| 2026-05-06 11:04 | -25.61353 | -166.96348 | 34901 ft | 460 kts | 64° |
| 2026-05-06 11:05 | -25.58841 | -166.89821 | 34900 ft | 460 kts | 63° |
| 2026-05-06 11:05 | -25.56323 | -166.83300 | 34900 ft | 461 kts | 63° |
| 2026-05-06 11:06 | -25.53803 | -166.76775 | 34900 ft | 461 kts | 63° |
| 2026-05-06 11:06 | -25.51280 | -166.70253 | 34900 ft | 461 kts | 63° |
| 2026-05-06 11:07 | -25.48747 | -166.63735 | 34901 ft | 461 kts | 63° |
| 2026-05-06 11:07 | -25.46216 | -166.57220 | 34900 ft | 461 kts | 63° |
| 2026-05-06 11:08 | -25.43685 | -166.50705 | 34900 ft | 461 kts | 63° |
| 2026-05-06 11:08 | -25.41149 | -166.44191 | 34900 ft | 461 kts | 63° |
| 2026-05-06 11:09 | -25.38604 | -166.37682 | 34901 ft | 461 kts | 63° |
| 2026-05-06 11:09 | -25.36062 | -166.31177 | 34908 ft | 461 kts | 63° |
| 2026-05-06 11:10 | -25.33532 | -166.24722 | 34910 ft | 460 kts | 63° |
| 2026-05-06 11:10 | -25.30984 | -166.18231 | 34911 ft | 460 kts | 63° |
| 2026-05-06 11:11 | -25.28437 | -166.11741 | 34910 ft | 460 kts | 63° |
| 2026-05-06 11:11 | -25.25888 | -166.05256 | 34911 ft | 460 kts | 63° |
| 2026-05-06 11:12 | -25.23324 | -165.98774 | 34911 ft | 460 kts | 63° |
| 2026-05-06 11:12 | -25.20763 | -165.92296 | 34910 ft | 460 kts | 63° |
| 2026-05-06 11:13 | -25.18211 | -165.85822 | 34948 ft | 460 kts | 63° |
| 2026-05-06 11:13 | -25.15651 | -165.79357 | 34971 ft | 460 kts | 63° |
| 2026-05-06 11:14 | -25.13086 | -165.72888 | 34969 ft | 460 kts | 63° |
| 2026-05-06 11:14 | -25.10536 | -165.66466 | 34962 ft | 460 kts | 63° |
| 2026-05-06 11:15 | -25.07969 | -165.60006 | 34950 ft | 460 kts | 63° |
| 2026-05-06 11:15 | -25.05400 | -165.53549 | 34949 ft | 460 kts | 63° |
| 2026-05-06 11:16 | -25.02828 | -165.47095 | 34946 ft | 459 kts | 62° |
| 2026-05-06 11:16 | -25.00256 | -165.40648 | 34950 ft | 459 kts | 63° |
| 2026-05-06 11:17 | -24.97680 | -165.34209 | 34946 ft | 459 kts | 62° |
| 2026-05-06 11:17 | -24.95103 | -165.27774 | 34953 ft | 459 kts | 62° |
| 2026-05-06 11:18 | -24.92521 | -165.21339 | 34959 ft | 459 kts | 62° |
| 2026-05-06 11:18 | -24.89941 | -165.14914 | 34961 ft | 458 kts | 62° |
| 2026-05-06 11:19 | -24.87356 | -165.08497 | 34961 ft | 458 kts | 62° |
| 2026-05-06 11:19 | -24.84771 | -165.02086 | 34963 ft | 458 kts | 62° |
| 2026-05-06 11:20 | -24.81526 | -164.96190 | 34961 ft | 452 kts | 51° |
| 2026-05-06 11:20 | -24.77866 | -164.90565 | 34960 ft | 452 kts | 51° |
| 2026-05-06 11:21 | -24.74216 | -164.84935 | 34959 ft | 452 kts | 51° |
| 2026-05-06 11:21 | -24.70581 | -164.79286 | 34961 ft | 452 kts | 51° |
| 2026-05-06 11:22 | -24.66955 | -164.73639 | 34959 ft | 452 kts | 51° |
| 2026-05-06 11:22 | -24.63304 | -164.68013 | 34958 ft | 452 kts | 51° |
| 2026-05-06 11:23 | -24.59656 | -164.62383 | 34961 ft | 452 kts | 51° |
| 2026-05-06 11:23 | -24.56010 | -164.56754 | 34963 ft | 452 kts | 51° |
| 2026-05-06 11:24 | -24.52369 | -164.51124 | 34960 ft | 452 kts | 51° |
| 2026-05-06 11:24 | -24.48714 | -164.45513 | 34963 ft | 452 kts | 51° |
| 2026-05-06 11:25 | -24.45078 | -164.39939 | 34961 ft | 452 kts | 51° |
| 2026-05-06 11:25 | -24.41417 | -164.34327 | 34963 ft | 452 kts | 51° |
| 2026-05-06 11:26 | -24.37749 | -164.28723 | 34970 ft | 452 kts | 51° |
| 2026-05-06 11:26 | -24.34087 | -164.23114 | 34972 ft | 452 kts | 51° |
| 2026-05-06 11:27 | -24.30424 | -164.17501 | 34970 ft | 452 kts | 51° |
| 2026-05-06 11:27 | -24.26760 | -164.11899 | 34971 ft | 452 kts | 51° |
| 2026-05-06 11:28 | -24.23088 | -164.06299 | 34970 ft | 452 kts | 51° |
| 2026-05-06 11:28 | -24.19409 | -164.00707 | 34971 ft | 452 kts | 51° |
| 2026-05-06 11:29 | -24.15730 | -163.95114 | 34970 ft | 452 kts | 51° |
| 2026-05-06 11:29 | -24.12055 | -163.89523 | 34970 ft | 452 kts | 51° |
| 2026-05-06 11:30 | -24.08366 | -163.83948 | 34971 ft | 452 kts | 51° |
| 2026-05-06 11:30 | -24.04681 | -163.78378 | 34969 ft | 452 kts | 51° |
| 2026-05-06 11:31 | -24.00997 | -163.72807 | 34970 ft | 452 kts | 51° |
| 2026-05-06 11:31 | -23.97313 | -163.67234 | 34970 ft | 452 kts | 51° |
| 2026-05-06 11:32 | -23.93623 | -163.61666 | 34970 ft | 452 kts | 51° |
| 2026-05-06 11:32 | -23.89937 | -163.56100 | 34970 ft | 452 kts | 51° |
| 2026-05-06 11:33 | -23.86244 | -163.50526 | 34971 ft | 453 kts | 51° |
| 2026-05-06 11:33 | -23.82544 | -163.44957 | 34972 ft | 453 kts | 51° |
| 2026-05-06 11:34 | -23.78847 | -163.39381 | 34978 ft | 454 kts | 51° |
| 2026-05-06 11:34 | -23.75137 | -163.33805 | 34982 ft | 454 kts | 51° |
| 2026-05-06 11:35 | -23.71421 | -163.28229 | 34981 ft | 454 kts | 51° |
| 2026-05-06 11:35 | -23.67700 | -163.22650 | 34979 ft | 455 kts | 51° |
| 2026-05-06 11:36 | -23.63998 | -163.17109 | 34980 ft | 455 kts | 51° |
| 2026-05-06 11:36 | -23.60267 | -163.11524 | 34981 ft | 456 kts | 51° |
| 2026-05-06 11:37 | -23.57135 | -163.06842 | 34981 ft | 456 kts | 51° |
| 2026-05-06 11:37 | -23.53396 | -163.01252 | 34981 ft | 457 kts | 51° |
| 2026-05-06 11:38 | -23.49647 | -162.95659 | 34980 ft | 457 kts | 51° |
| 2026-05-06 11:38 | -23.45890 | -162.90069 | 34982 ft | 457 kts | 51° |
| 2026-05-06 11:39 | -23.42128 | -162.84477 | 34982 ft | 458 kts | 51° |
| 2026-05-06 11:39 | -23.38369 | -162.78885 | 34981 ft | 458 kts | 51° |
| 2026-05-06 11:40 | -23.34629 | -162.73324 | 34979 ft | 458 kts | 51° |
| 2026-05-06 11:40 | -23.30861 | -162.67727 | 34981 ft | 459 kts | 51° |
| 2026-05-06 11:41 | -23.27083 | -162.62132 | 34982 ft | 459 kts | 51° |
| 2026-05-06 11:41 | -23.23304 | -162.56535 | 34981 ft | 459 kts | 51° |
| 2026-05-06 11:42 | -23.19523 | -162.50939 | 34980 ft | 460 kts | 51° |
| 2026-05-06 11:42 | -23.15731 | -162.45341 | 34981 ft | 460 kts | 51° |
| 2026-05-06 11:43 | -23.11942 | -162.39744 | 34981 ft | 460 kts | 51° |
| 2026-05-06 11:43 | -23.08143 | -162.34155 | 34982 ft | 460 kts | 51° |
| 2026-05-06 11:44 | -23.02473 | -162.25817 | 34987 ft | 460 kts | 51° |
| 2026-05-06 11:44 | -22.98677 | -162.20232 | 34993 ft | 460 kts | 51° |
| 2026-05-06 11:45 | -22.94870 | -162.14650 | 35001 ft | 460 kts | 51° |
| 2026-05-06 11:45 | -22.91066 | -162.09065 | 35001 ft | 460 kts | 51° |
| 2026-05-06 11:46 | -22.87257 | -162.03485 | 34993 ft | 460 kts | 51° |
| 2026-05-06 11:46 | -22.83460 | -161.97893 | 34994 ft | 461 kts | 51° |
| 2026-05-06 11:47 | -22.79667 | -161.92276 | 34991 ft | 462 kts | 51° |
| 2026-05-06 11:47 | -22.75832 | -161.86680 | 35005 ft | 462 kts | 51° |
| 2026-05-06 11:48 | -22.71997 | -161.81090 | 35001 ft | 462 kts | 51° |
| 2026-05-06 11:48 | -22.68169 | -161.75494 | 34986 ft | 463 kts | 51° |
| 2026-05-06 11:49 | -22.64322 | -161.69909 | 34993 ft | 463 kts | 51° |
| 2026-05-06 11:49 | -22.60474 | -161.64331 | 34991 ft | 462 kts | 51° |
| 2026-05-06 11:50 | -22.56662 | -161.58792 | 34986 ft | 456 kts | 51° |
| 2026-05-06 11:50 | -22.52885 | -161.53317 | 34878 ft | 451 kts | 51° |
| 2026-05-06 11:51 | -22.50988 | -161.50575 | 34544 ft | 459 kts | 51° |
| 2026-05-06 11:51 | -22.49063 | -161.47798 | 34222 ft | 462 kts | 51° |
| 2026-05-06 11:51 | -22.47150 | -161.45028 | 33707 ft | 459 kts | 51° |
| 2026-05-06 11:51 | -22.45248 | -161.42267 | 33172 ft | 456 kts | 51° |
| 2026-05-06 11:52 | -22.43354 | -161.39528 | 32630 ft | 454 kts | 51° |
| 2026-05-06 11:52 | -22.41462 | -161.36799 | 32072 ft | 452 kts | 51° |
| 2026-05-06 11:52 | -22.39580 | -161.34082 | 31514 ft | 451 kts | 51° |
| 2026-05-06 11:52 | -22.37718 | -161.31370 | 30960 ft | 449 kts | 51° |
| 2026-05-06 11:53 | -22.35882 | -161.28703 | 30432 ft | 447 kts | 51° |
| 2026-05-06 11:53 | -22.34029 | -161.26022 | 29906 ft | 444 kts | 51° |
| 2026-05-06 11:53 | -22.32176 | -161.23364 | 29355 ft | 442 kts | 51° |
| 2026-05-06 11:53 | -22.30332 | -161.20718 | 28809 ft | 440 kts | 51° |
| 2026-05-06 11:54 | -22.28500 | -161.18087 | 28289 ft | 438 kts | 51° |
| 2026-05-06 11:54 | -22.26677 | -161.15464 | 27749 ft | 435 kts | 51° |
| 2026-05-06 11:54 | -22.24872 | -161.12856 | 27217 ft | 432 kts | 51° |
| 2026-05-06 11:54 | -22.23074 | -161.10266 | 26665 ft | 430 kts | 51° |
| 2026-05-06 11:55 | -22.21277 | -161.07694 | 26120 ft | 428 kts | 51° |
| 2026-05-06 11:55 | -22.19493 | -161.05137 | 25597 ft | 425 kts | 51° |
| 2026-05-06 11:55 | -22.17722 | -161.02595 | 25093 ft | 422 kts | 51° |
| 2026-05-06 11:55 | -22.15977 | -161.00063 | 24567 ft | 420 kts | 51° |
| 2026-05-06 11:56 | -22.14241 | -160.97542 | 24038 ft | 417 kts | 51° |
| 2026-05-06 11:56 | -22.12513 | -160.95047 | 23516 ft | 412 kts | 51° |
| 2026-05-06 11:56 | -22.10805 | -160.92591 | 23006 ft | 407 kts | 51° |
| 2026-05-06 11:56 | -22.09115 | -160.90167 | 22508 ft | 402 kts | 51° |
| 2026-05-06 11:57 | -22.07443 | -160.87773 | 22005 ft | 397 kts | 51° |
| 2026-05-06 11:57 | -22.05789 | -160.85402 | 21482 ft | 393 kts | 51° |
| 2026-05-06 11:57 | -22.04150 | -160.83056 | 20972 ft | 389 kts | 51° |
| 2026-05-06 11:57 | -22.02529 | -160.80739 | 20493 ft | 385 kts | 51° |
| 2026-05-06 11:58 | -22.00927 | -160.78453 | 20033 ft | 380 kts | 51° |
| 2026-05-06 11:58 | -21.99347 | -160.76195 | 19574 ft | 375 kts | 51° |
| 2026-05-06 11:58 | -21.97756 | -160.73994 | 19125 ft | 369 kts | 45° |
| 2026-05-06 11:58 | -21.95883 | -160.72154 | 18693 ft | 361 kts | 37° |
| 2026-05-06 11:59 | -21.93932 | -160.70478 | 18281 ft | 357 kts | 36° |
| 2026-05-06 11:59 | -21.92010 | -160.68836 | 17883 ft | 357 kts | 36° |
| 2026-05-06 11:59 | -21.90072 | -160.67165 | 17471 ft | 357 kts | 37° |
| 2026-05-06 11:59 | -21.88139 | -160.65488 | 17066 ft | 357 kts | 37° |
| 2026-05-06 12:00 | -21.86207 | -160.63803 | 16660 ft | 357 kts | 37° |
| 2026-05-06 12:00 | -21.84282 | -160.62119 | 16251 ft | 357 kts | 37° |
| 2026-05-06 12:00 | -21.82359 | -160.60435 | 15838 ft | 356 kts | 37° |
| 2026-05-06 12:00 | -21.80438 | -160.58751 | 15427 ft | 356 kts | 37° |
| 2026-05-06 12:01 | -21.78516 | -160.57070 | 15029 ft | 355 kts | 37° |
| 2026-05-06 12:01 | -21.76600 | -160.55395 | 14617 ft | 355 kts | 37° |
| 2026-05-06 12:01 | -21.74689 | -160.53727 | 14194 ft | 352 kts | 37° |
| 2026-05-06 12:01 | -21.72803 | -160.52078 | 13768 ft | 347 kts | 37° |
| 2026-05-06 12:02 | -21.70939 | -160.50448 | 13353 ft | 343 kts | 37° |
| 2026-05-06 12:02 | -21.69107 | -160.48844 | 12971 ft | 336 kts | 37° |
| 2026-05-06 12:02 | -21.67300 | -160.47271 | 12597 ft | 332 kts | 37° |
| 2026-05-06 12:02 | -21.65523 | -160.45722 | 12216 ft | 327 kts | 37° |
| 2026-05-06 12:03 | -21.63767 | -160.44193 | 11827 ft | 323 kts | 37° |
| 2026-05-06 12:03 | -21.62030 | -160.42686 | 11443 ft | 318 kts | 37° |
| 2026-05-06 12:03 | -21.60312 | -160.41194 | 11066 ft | 318 kts | 38° |
| 2026-05-06 12:03 | -21.58593 | -160.39700 | 10705 ft | 316 kts | 38° |
| 2026-05-06 12:04 | -21.56904 | -160.38229 | 10442 ft | 309 kts | 38° |
| 2026-05-06 12:04 | -21.55285 | -160.36818 | 10247 ft | 298 kts | 38° |
| 2026-05-06 12:04 | -21.53674 | -160.35414 | 10023 ft | 291 kts | 38° |
| 2026-05-06 12:04 | -21.52102 | -160.34048 | 9691 ft | 291 kts | 38° |
| 2026-05-06 12:05 | -21.50542 | -160.32693 | 9334 ft | 292 kts | 38° |
| 2026-05-06 12:05 | -21.48969 | -160.31329 | 8972 ft | 289 kts | 38° |
| 2026-05-06 12:05 | -21.47415 | -160.29977 | 8605 ft | 286 kts | 39° |
| 2026-05-06 12:05 | -21.45877 | -160.28636 | 8247 ft | 283 kts | 39° |
| 2026-05-06 12:06 | -21.44355 | -160.27311 | 7901 ft | 280 kts | 39° |
| 2026-05-06 12:06 | -21.42848 | -160.26003 | 7573 ft | 277 kts | 39° |
| 2026-05-06 12:06 | -21.41348 | -160.24701 | 7240 ft | 278 kts | 39° |
| 2026-05-06 12:06 | -21.39844 | -160.23398 | 6895 ft | 277 kts | 39° |
| 2026-05-06 12:07 | -21.38354 | -160.22106 | 6545 ft | 274 kts | 39° |
| 2026-05-06 12:07 | -21.36880 | -160.20822 | 6196 ft | 272 kts | 40° |
| 2026-05-06 12:07 | -21.35419 | -160.19552 | 5850 ft | 269 kts | 40° |
| 2026-05-06 12:07 | -21.33974 | -160.18298 | 5511 ft | 266 kts | 40° |
| 2026-05-06 12:08 | -21.32545 | -160.17054 | 5193 ft | 264 kts | 40° |
| 2026-05-06 12:08 | -21.31117 | -160.15809 | 4862 ft | 265 kts | 40° |
| 2026-05-06 12:08 | -21.29683 | -160.14567 | 4520 ft | 265 kts | 40° |
| 2026-05-06 12:08 | -21.28255 | -160.13332 | 4172 ft | 263 kts | 40° |
| 2026-05-06 12:09 | -21.26842 | -160.12107 | 3825 ft | 260 kts | 40° |
| 2026-05-06 12:09 | -21.25438 | -160.10897 | 3480 ft | 258 kts | 41° |
| 2026-05-06 12:09 | -21.24047 | -160.09695 | 3147 ft | 256 kts | 41° |
| 2026-05-06 12:09 | -21.22658 | -160.08500 | 2818 ft | 256 kts | 41° |
| 2026-05-06 12:10 | -21.21301 | -160.07259 | 2494 ft | 256 kts | 48° |
| 2026-05-06 12:10 | -21.20393 | -160.05693 | 2220 ft | 248 kts | 73° |
| 2026-05-06 12:10 | -21.20166 | -160.03922 | 2160 ft | 234 kts | 90° |
| 2026-05-06 12:10 | -21.20197 | -160.02238 | 2156 ft | 219 kts | 91° |
| 2026-05-06 12:11 | -21.20244 | -160.00628 | 2165 ft | 211 kts | 90° |
| 2026-05-06 12:11 | -21.20253 | -159.99118 | 2157 ft | 196 kts | 90° |
| 2026-05-06 12:11 | -21.20256 | -159.97721 | 2189 ft | 176 kts | 89° |
| 2026-05-06 12:11 | -21.20256 | -159.96473 | 2193 ft | 163 kts | 89° |
| 2026-05-06 12:12 | -21.20256 | -159.95262 | 2188 ft | 163 kts | 89° |
| 2026-05-06 12:12 | -21.20257 | -159.94049 | 2187 ft | 163 kts | 89° |
| 2026-05-06 12:12 | -21.20257 | -159.92843 | 2075 ft | 158 kts | 89° |
| 2026-05-06 12:12 | -21.20257 | -159.91670 | 1898 ft | 156 kts | 89° |
| 2026-05-06 12:13 | -21.20257 | -159.90528 | 1707 ft | 152 kts | 89° |
| 2026-05-06 12:13 | -21.20257 | -159.89395 | 1483 ft | 150 kts | 89° |
| 2026-05-06 12:13 | -21.20258 | -159.88317 | 1298 ft | 139 kts | 89° |
| 2026-05-06 12:13 | -21.20258 | -159.87294 | 1097 ft | 135 kts | 89° |
| 2026-05-06 12:14 | -21.20258 | -159.86295 | 912 ft | 134 kts | 89° |
| 2026-05-06 12:14 | -21.20258 | -159.85298 | 737 ft | 134 kts | 89° |
| 2026-05-06 12:14 | -21.20259 | -159.84300 | 562 ft | 134 kts | 89° |
| 2026-05-06 12:14 | -21.20265 | -159.83302 | 396 ft | 133 kts | 89° |
| 2026-05-06 12:15 | -21.20260 | -159.82315 | 223 ft | 132 kts | 88° |
| 2026-05-06 12:15 | -21.20257 | -159.81338 | 45 ft | 130 kts | 88° |
| 2026-05-06 12:15 | -21.20257 | -159.80485 | 18 ft | 80 kts | 89° |
| 2026-05-06 12:15 | -21.20257 | -159.80122 | 15 ft | 36 kts | 90° |
| 2026-05-06 12:16 | -21.20257 | -159.79948 | 19 ft | 14 kts | 90° |
| 2026-05-06 12:16 | -21.20257 | -159.79863 | 17 ft | 11 kts | 80° |
| 2026-05-06 12:16 | -21.20208 | -159.79829 | 16 ft | 10 kts | 360° |
| 2026-05-06 12:16 | -21.20140 | -159.79836 | 17 ft | 9 kts | 335° |
| 2026-05-06 12:17 | -21.20100 | -159.79882 | 16 ft | 6 kts | 317° |
| 2026-05-06 12:17 | -21.20070 | -159.79883 | 16 ft | 3 kts | 53° |
| 2026-05-06 12:17 | -21.20069 | -159.79871 | 16 ft | 0 kts | 91° |
| 2026-05-06 12:18 | -21.20069 | -159.79866 | 16 ft | 0 kts | 90° |